Latest Coastal Weather Observations for Bedout Island

IDW60701

Issued at 11:55 pm WST Tuesday 30 September 2014 (issued every 10 minutes, with the page automatically refreshed every 10 minutes)

About coastal observations | Map of coastal stations | Coastal observations for WA | Marine services | Other Formats
Station Details ID: 004100 Name: BEDOUT ISLAND Lat: -19.59 Lon: 119.10 Height: 8.6 m
Data from the previous 72 hours. | See also: Recent months for locations in Western Australia
Date/Time
WST
Temp

°C
Wind Pressure Rain
since 9am
mm
Weather Cloud Vis
km
Sea
Height
m
Swell
Dir
 
Speed
knots
Gust
knots
hPa Trend Height
m
Period
s
Dir
30/11:30pm 24.9 WSW 17 19 1011.2 - - - - - - - - -
30/11:00pm 25.1 WSW 18 20 1011.2 - - - - - - - - -
30/10:30pm 25.3 W 18 20 1011.5 - - - - - - - - -
30/10:00pm 25.1 W 17 19 1011.8 - - - - - - - - -
30/09:30pm 25.1 W 15 16 1012.3 - - - - - - - - -
30/09:00pm 25.0 W 14 15 1012.3 - - - - - - - - -
30/08:30pm 24.9 W 13 15 1012.3 - - - - - - - - -
30/08:00pm 24.9 W 13 14 1012.2 - - - - - - - - -
30/07:30pm 25.1 W 13 14 1012.0 - - - - - - - - -
30/07:00pm 25.2 W 12 14 1011.7 - - - - - - - - -
30/06:30pm 25.5 W 12 13 1011.4 - - - - - - - - -
30/06:00pm 26.0 W 13 15 1010.9 - - - - - - - - -
30/05:30pm 26.8 W 14 15 1010.7 - - - - - - - - -
30/05:00pm 27.4 W 14 17 1010.3 - - - - - - - - -
30/04:30pm 28.1 W 15 17 1010.1 - - - - - - - - -
30/04:00pm 28.7 W 15 16 1010.1 - - - - - - - - -
30/03:30pm 29.2 W 15 17 1010.1 - - - - - - - - -
30/03:00pm 29.7 W 14 16 1010.1 - - - - - - - - -
30/02:30pm 30.3 W 12 13 1010.2 - - - - - - - - -
30/02:00pm 29.8 W 12 14 1010.4 - - - - - - - - -
30/01:30pm 30.0 W 12 13 1010.7 - - - - - - - - -
30/01:00pm 30.8 W 11 13 1011.0 - - - - - - - - -
30/12:30pm 29.5 WSW 9 11 1011.4 - - - - - - - - -
30/12:00pm 29.9 WSW 10 12 1011.9 - - - - - - - - -
30/11:30am 30.4 WSW 10 12 1012.3 - - - - - - - - -
30/11:00am 29.5 WSW 10 12 1012.7 - - - - - - - - -
30/10:30am 30.1 SW 10 12 1012.9 - - - - - - - - -
30/10:00am 28.7 SW 10 12 1013.1 - - - - - - - - -
30/09:30am 29.1 SW 11 13 1013.2 - - - - - - - - -
30/09:00am 28.7 SW 10 12 1013.1 - - - - - - - - -
30/08:30am 27.6 SW 10 11 1013.2 - - - - - - - - -
30/08:00am 27.0 SW 10 11 1013.1 - - - - - - - - -
30/07:30am 25.9 SSW 9 11 1012.9 - - - - - - - - -
30/07:00am 24.8 SW 11 12 1012.7 - - - - - - - - -
30/06:30am 24.1 SW 10 12 1012.4 - - - - - - - - -
30/06:00am 23.8 SW 11 13 1011.9 - - - - - - - - -
30/05:30am 23.8 SW 12 13 1011.7 - - - - - - - - -
30/05:00am 23.9 SW 13 14 1011.5 - - - - - - - - -
30/04:30am 23.9 SW 14 16 1011.4 - - - - - - - - -
30/04:00am 24.0 SW 17 19 1011.2 - - - - - - - - -
30/03:30am 24.0 WSW 17 20 1010.9 - - - - - - - - -
30/03:00am 24.1 WSW 19 22 1010.6 - - - - - - - - -
30/02:30am 24.1 W 20 22 1010.7 - - - - - - - - -
30/02:00am 24.1 WSW 16 17 1011.5 - - - - - - - - -
30/01:30am 24.2 WSW 15 18 1011.7 - - - - - - - - -
30/01:00am 24.2 WSW 17 21 1011.7 - - - - - - - - -
30/12:30am 24.2 WSW 17 19 1011.9 - - - - - - - - -
30/12:00am 24.2 W 15 17 1012.1 - - - - - - - - -
 
Date/Time
WST
Temp

°C
Wind Pressure Rain
since 9am
mm
Weather Cloud Vis
km
Sea
Height
m
Swell
Dir
 
Speed
knots
Gust
knots
hPa Trend Height
m
Period
s
Dir
29/11:30pm 24.1 W 16 19 1012.3 - - - - - - - - -
29/11:00pm 24.1 W 15 17 1012.8 - - - - - - - - -
29/10:30pm 24.1 WNW 16 18 1013.0 - - - - - - - - -
29/10:00pm 24.0 W 15 17 1013.4 - - - - - - - - -
29/09:30pm 23.7 WNW 13 15 1013.7 - - - - - - - - -
29/09:00pm 23.7 W 13 15 1013.7 - - - - - - - - -
29/08:30pm 23.8 WNW 13 15 1013.6 - - - - - - - - -
29/08:00pm 23.9 WNW 11 13 1013.3 - - - - - - - - -
29/07:30pm 24.1 WNW 11 12 1012.9 - - - - - - - - -
29/07:00pm 24.2 W 13 15 1012.1 - - - - - - - - -
29/06:30pm 24.3 W 13 15 1011.7 - - - - - - - - -
29/06:00pm 24.7 W 12 13 1011.1 - - - - - - - - -
29/05:30pm 25.6 W 12 13 1011.0 - - - - - - - - -
29/05:00pm 26.3 W 13 15 1010.8 - - - - - - - - -
29/04:30pm 26.9 W 15 17 1010.6 - - - - - - - - -
29/04:00pm 27.3 W 15 17 1010.5 - - - - - - - - -
29/03:30pm 27.9 W 14 16 1010.6 - - - - - - - - -
29/03:00pm 28.3 W 12 13 1010.7 - - - - - - - - -
29/02:30pm 28.6 WNW 11 13 1011.0 - - - - - - - - -
29/02:00pm 28.9 W 12 14 1011.0 - - - - - - - - -
29/01:30pm 29.2 W 13 15 1011.3 - - - - - - - - -
29/01:00pm 29.2 W 13 14 1011.6 - - - - - - - - -
29/12:30pm 29.1 W 11 13 1011.7 - - - - - - - - -
29/12:00pm 29.6 W 10 11 1012.0 - - - - - - - - -
29/11:30am 29.5 W 8 10 1012.7 - - - - - - - - -
29/11:00am 28.8 W 9 10 1013.1 - - - - - - - - -
29/10:30am 28.3 W 9 10 1013.4 - - - - - - - - -
29/10:00am 28.8 W 9 10 1013.5 - - - - - - - - -
29/09:30am 28.5 W 9 11 1013.4 - - - - - - - - -
29/09:00am 28.0 WSW 8 9 1013.4 - - - - - - - - -
29/08:30am 27.4 SW 7 8 1013.4 - - - - - - - - -
29/08:00am 27.1 SSW 7 8 1013.4 - - - - - - - - -
29/07:30am 26.2 SW 8 9 1012.9 - - - - - - - - -
29/07:00am 25.3 SW 9 10 1012.6 - - - - - - - - -
29/06:30am 24.4 SW 13 15 1012.1 - - - - - - - - -
29/06:00am 24.1 WSW 16 18 1011.6 - - - - - - - - -
29/05:30am 24.0 SW 16 18 1011.4 - - - - - - - - -
29/05:00am 23.9 WSW 17 19 1011.1 - - - - - - - - -
29/04:30am 23.9 W 17 20 1010.9 - - - - - - - - -
29/04:00am 24.1 W 15 19 1011.0 - - - - - - - - -
29/03:30am 24.2 WSW 17 21 1011.1 - - - - - - - - -
29/03:00am 24.4 WSW 19 21 1011.0 - - - - - - - - -
29/02:30am 24.5 WSW 20 24 1011.2 - - - - - - - - -
29/02:00am 24.5 W 20 23 1011.4 - - - - - - - - -
29/01:30am 24.7 W 20 22 1011.6 - - - - - - - - -
29/01:00am 24.2 W 20 23 1011.8 - - - - - - - - -
29/12:30am 24.0 W 17 20 1012.0 - - - - - - - - -
29/12:00am 24.2 W 15 17 1012.4 - - - - - - - - -
 
Date/Time
WST
Temp

°C
Wind Pressure Rain
since 9am
mm
Weather Cloud Vis
km
Sea
Height
m
Swell
Dir
 
Speed
knots
Gust
knots
hPa Trend Height
m
Period
s
Dir
28/11:30pm 24.1 W 15 17 1012.7 - - - - - - - - -
28/11:00pm 24.2 NW 12 13 1013.1 - - - - - - - - -
28/10:30pm 24.1 WNW 12 13 1013.2 - - - - - - - - -
28/10:00pm 24.3 WSW 12 13 1013.1 - - - - - - - - -
28/09:30pm 24.2 WSW 12 14 1013.3 - - - - - - - - -
28/09:00pm 24.3 WSW 12 13 1013.0 - - - - - - - - -
28/08:30pm 24.4 WSW 13 14 1012.9 - - - - - - - - -
28/08:00pm 24.5 W 12 14 1012.6 - - - - - - - - -
28/07:30pm 24.7 WSW 14 16 1012.4 - - - - - - - - -
28/07:00pm 24.8 WSW 13 16 1012.1 - - - - - - - - -
28/06:30pm 24.8 WSW 13 15 1011.7 - - - - - - - - -
28/06:00pm 25.2 W 11 13 1011.4 - - - - - - - - -
28/05:30pm 25.9 WSW 10 12 1011.4 - - - - - - - - -
28/05:00pm 26.8 WSW 10 12 1011.2 - - - - - - - - -
28/04:30pm 27.3 W 12 13 1011.2 - - - - - - - - -
28/04:00pm 27.7 W 15 17 1011.1 - - - - - - - - -
28/03:30pm 28.4 WNW 9 11 1011.8 - - - - - - - - -
28/03:00pm 28.4 WNW 8 10 1011.9 - - - - - - - - -
28/02:30pm 28.2 W 7 8 1012.0 - - - - - - - - -
28/02:00pm 28.4 W 7 8 1012.2 - - - - - - - - -
28/01:30pm 28.5 W 8 11 1012.4 - - - - - - - - -
28/01:00pm 29.1 W 7 9 1012.8 - - - - - - - - -
28/12:30pm 28.9 WSW 8 10 1013.0 - - - - - - - - -
28/12:00pm 29.0 SW 10 11 1013.2 - - - - - - - - -
28/11:30am 28.1 SW 9 11 1014.0 - - - - - - - - -
28/11:00am 29.1 SW 10 11 1014.6 - - - - - - - - -
28/10:30am 27.8 SSW 9 11 1015.0 - - - - - - - - -
28/10:00am 27.4 SW 9 11 1015.3 - - - - - - - - -
28/09:30am 27.4 SW 9 10 1015.5 - - - - - - - - -
28/09:00am 26.8 SW 9 11 1015.5 - - - - - - - - -
28/08:30am 26.8 SW 8 10 1015.5 - - - - - - - - -
28/08:00am 25.9 SW 9 11 1015.3 - - - - - - - - -
28/07:30am 25.3 SW 11 12 1015.2 - - - - - - - - -
28/07:00am 24.3 WSW 10 13 1015.0 - - - - - - - - -
28/06:30am 23.9 WSW 12 15 1014.9 - - - - - - - - -
28/06:00am 23.9 WSW 12 14 1014.6 - - - - - - - - -
28/05:30am 23.8 WSW 14 15 1014.5 - - - - - - - - -
28/05:00am 23.9 WSW 13 15 1014.1 - - - - - - - - -
28/04:30am 23.9 W 13 15 1013.9 - - - - - - - - -
28/04:00am 23.9 W 12 14 1013.6 - - - - - - - - -
28/03:30am 23.9 W 11 13 1013.8 - - - - - - - - -
28/03:00am 23.8 W 12 14 1013.6 - - - - - - - - -
28/02:30am 24.0 WNW 13 14 1013.9 - - - - - - - - -
28/02:00am 23.9 W 15 17 1013.9 - - - - - - - - -
28/01:30am 23.7 W 14 16 1014.0 - - - - - - - - -
28/01:00am 23.6 W 14 18 1014.1 - - - - - - - - -
28/12:30am 23.7 WNW 14 17 1014.2 - - - - - - - - -
28/12:00am 23.7 WNW 14 16 1014.3 - - - - - - - - -

Other Formats:

Comma delimited format used in spreadsheet applications
http://www.bom.gov.au/fwo/IDW60701/IDW60701.94310.axf

JavaScript Object Notation format (JSON) in row-major order
http://www.bom.gov.au/fwo/IDW60701/IDW60701.94310.json